Strona główna
METAR-TAF:

METAR-TAF

Lotnisko :

Port lotniczy Bastia-Poretta

Bastia, Francja

Szerokość geograficzna: 42-33N, Długość geograficzna: 009-29E, wysokość: 8 m

Aktualna obserwacja pogody

Raport powstał 33 minut temu, godzina 04:30 UTC
Wiatr 9 kt od południowy zachód
Temperatura 15°C
Wilgotność 55%
Ciśnienie 1026 hPa
Widzialność 10 km lub więcej
Brak chmur poniżej 1500 m i brak chmur cumulonimbus

METAR: LFKB 280430Z AUTO 22009KT CAVOK 15/06 Q1026 NOSIG

czas: 07:03 (05:03 UTC)

Prognoza

Raport powstał 3 godziny i 3 minut temu, godzina 02:00 UTC
Prognoza ważna od 28 godzina 03 UTC do 29 godzina 03 UTC
Wiatr 5 kt od południowy zachód
Widzialność 10 km lub więcej
Brak chmur poniżej 1500 m i brak chmur cumulonimbus
Stopniowe zmiany
od 28 godzina 10 UTC do 28 godzina 12 UTC
Wiatr 10 kt od wschód
Stopniowe zmiany
od 28 godzina 18 UTC do 28 godzina 20 UTC
Wiatr 5 kt od zachodnio-południowy zachód

TAF: LFKB 280200Z 2803/2903 23005KT CAVOK TX24/2812Z TN14/2803Z BECMG 2810/2812 10010KT BECMG 2818/2820 24005KT

Obserwacja i prognoza pogody dla ponad 4000 lotnisk (raport METAR i TAF).

Dostępne stacje oznaczono żółtymi i czerwonymi punktami na mapie.

Najedź kursorem aby zobaczyć nazwę stacji.

Kliknij aby zobaczyć obserwacje i prognozy pogody.

Aby zmienić mapę: kliknij na zielony przycisk z czarnym krzyżykiem, aby powiększyć; na zielony przycisk z myślnikiem, aby pomniejszyć; na zielone strzałki, aby przejść do map sąsiednich.


METAR-TAF: